createdAt,value
2022-09-28T00:02:12.345Z,10.37
2022-09-28T00:04:38.804Z,10.44
2022-09-28T00:07:05.186Z,10.48
2022-09-28T00:09:31.587Z,10.49
2022-09-28T00:11:58.022Z,10.46
2022-09-28T00:14:25.129Z,10.51
2022-09-28T00:16:51.569Z,10.48
2022-09-28T00:19:19.270Z,10.42
2022-09-28T00:21:45.995Z,10.45
2022-09-28T00:24:15.595Z,10.54
2022-09-28T00:26:54.155Z,10.46
2022-09-28T00:29:23.727Z,10.46
2022-09-28T00:32:02.411Z,10.45
2022-09-28T00:34:31.958Z,10.50
2022-09-28T00:36:59.329Z,10.57
2022-09-28T00:39:27.071Z,10.63
2022-09-28T00:41:54.451Z,10.61
2022-09-28T00:44:26.711Z,10.63
2022-09-28T00:47:14.788Z,10.62
2022-09-28T00:49:53.734Z,10.62
2022-09-28T00:52:35.017Z,10.60
2022-09-28T00:55:05.887Z,10.56
2022-09-28T00:57:32.702Z,10.59
2022-09-28T01:00:01.252Z,10.57
2022-09-28T01:02:27.895Z,10.63
2022-09-28T01:04:55.483Z,10.56
2022-09-28T01:07:22.551Z,10.64
2022-09-28T01:09:49.834Z,10.63
2022-09-28T01:12:16.250Z,10.41
2022-09-28T01:14:43.616Z,10.46
2022-09-28T01:17:42.204Z,10.57
2022-09-28T01:20:20.953Z,10.55
2022-09-28T01:23:28.522Z,10.55
2022-09-28T01:26:09.760Z,10.57
2022-09-28T01:28:36.395Z,10.70
2022-09-28T01:31:11.165Z,10.78
2022-09-28T01:33:42.203Z,10.77
2022-09-28T01:36:33.238Z,10.72
2022-09-28T01:39:09.059Z,10.69
2022-09-28T01:41:36.774Z,10.78
2022-09-28T01:44:06.157Z,10.68
2022-09-28T01:46:44.683Z,10.71
2022-09-28T01:49:16.140Z,10.68
2022-09-28T01:51:51.114Z,10.73
2022-09-28T01:54:28.108Z,10.69
2022-09-28T01:57:00.314Z,10.66
2022-09-28T01:59:31.011Z,10.73
2022-09-28T02:02:18.795Z,10.70
2022-09-28T02:04:50.174Z,10.76
2022-09-28T02:07:22.582Z,10.76
2022-09-28T02:09:57.810Z,10.74
2022-09-28T02:12:39.607Z,10.83
2022-09-28T02:15:14.781Z,10.69
2022-09-28T02:17:41.740Z,10.74
2022-09-28T02:20:08.980Z,10.80
2022-09-28T02:22:56.279Z,10.87
2022-09-28T02:25:31.064Z,10.87
2022-09-28T02:28:01.242Z,10.86
2022-09-28T02:30:32.443Z,10.80
2022-09-28T02:33:05.893Z,10.70
2022-09-28T02:35:34.860Z,10.69
2022-09-28T02:38:02.579Z,10.77
2022-09-28T02:40:33.377Z,10.70
2022-09-28T02:43:32.643Z,10.70
2022-09-28T02:46:25.849Z,10.60
2022-09-28T02:49:25.769Z,10.51
2022-09-28T02:52:13.662Z,10.64
2022-09-28T02:55:07.231Z,10.72
2022-09-28T02:58:11.601Z,10.67
2022-09-28T03:00:47.480Z,10.58
2022-09-28T03:03:25.406Z,10.58
2022-09-28T03:06:04.269Z,10.53
2022-09-28T03:08:42.806Z,10.48
2022-09-28T03:11:20.698Z,10.41
2022-09-28T03:13:50.824Z,10.40
2022-09-28T03:16:20.091Z,10.32
2022-09-28T03:18:48.756Z,10.31
2022-09-28T03:21:16.120Z,10.31
2022-09-28T03:23:43.129Z,10.39
2022-09-28T03:26:14.139Z,10.53
2022-09-28T03:28:41.045Z,10.62
2022-09-28T03:31:11.375Z,10.57
2022-09-28T03:33:37.839Z,10.51
2022-09-28T03:36:04.349Z,10.52
2022-09-28T03:38:30.855Z,10.61
2022-09-28T03:41:00.181Z,10.60
2022-09-28T03:43:31.077Z,10.51
2022-09-28T03:46:00.816Z,10.52
2022-09-28T03:48:33.240Z,10.50
2022-09-28T03:51:01.615Z,10.39
2022-09-28T03:53:29.696Z,10.39
2022-09-28T03:56:01.895Z,10.34
2022-09-28T03:58:28.814Z,10.26
2022-09-28T04:00:55.305Z,10.17
2022-09-28T04:03:21.803Z,10.13
2022-09-28T04:05:53.227Z,10.14
2022-09-28T04:08:20.159Z,10.14
2022-09-28T04:10:47.201Z,10.15
2022-09-28T04:13:13.924Z,10.22
2022-09-28T04:15:41.307Z,10.25
2022-09-28T04:18:12.269Z,10.31
2022-09-28T04:21:06.657Z,10.33
2022-09-28T04:23:39.114Z,10.24
2022-09-28T04:26:11.647Z,10.14
2022-09-28T04:28:56.964Z,10.09
2022-09-28T04:31:24.437Z,10.14
2022-09-28T04:33:51.086Z,10.14
2022-09-28T04:36:19.640Z,10.15
2022-09-28T04:38:53.204Z,10.19
2022-09-28T04:41:22.595Z,10.10
2022-09-28T04:43:50.411Z,9.99
2022-09-28T04:46:16.949Z,9.92
2022-09-28T04:48:53.512Z,9.92
2022-09-28T04:51:32.002Z,9.90
2022-09-28T04:53:58.787Z,9.96
2022-09-28T04:56:25.341Z,10.05
2022-09-28T04:58:52.859Z,9.98
2022-09-28T05:01:23.358Z,9.98
2022-09-28T05:03:58.978Z,9.99
2022-09-28T05:06:38.160Z,10.13
2022-09-28T05:09:06.588Z,10.10
2022-09-28T05:11:34.298Z,10.15
2022-09-28T05:14:01.534Z,10.12
2022-09-28T05:16:29.861Z,10.23
2022-09-28T05:19:25.484Z,10.26
2022-09-28T05:21:53.315Z,10.26
2022-09-28T05:24:19.723Z,10.26
2022-09-28T05:26:50.983Z,10.22
2022-09-28T05:29:17.686Z,10.07
2022-09-28T05:32:02.853Z,10.01
2022-09-28T05:34:46.698Z,10.02
2022-09-28T05:37:19.159Z,9.87
2022-09-28T05:39:46.607Z,9.78
2022-09-28T05:42:13.053Z,9.96
2022-09-28T05:44:39.455Z,9.97
2022-09-28T05:47:05.876Z,9.99
2022-09-28T05:49:32.501Z,9.89
2022-09-28T05:52:00.456Z,9.96
2022-09-28T05:54:27.542Z,9.97
2022-09-28T05:56:53.966Z,10.05
2022-09-28T05:59:20.416Z,10.10
2022-09-28T06:01:46.848Z,9.97
2022-09-28T06:04:16.034Z,10.07
2022-09-28T06:06:43.496Z,10.13
2022-09-28T06:09:10.047Z,10.12
2022-09-28T06:12:02.004Z,10.10
2022-09-28T06:14:49.167Z,10.09
2022-09-28T06:17:15.589Z,9.83
2022-09-28T06:19:44.946Z,10.05
2022-09-28T06:22:45.785Z,10.36
2022-09-28T06:25:12.547Z,10.86
2022-09-28T06:27:40.559Z,11.10
2022-09-28T06:30:07.515Z,11.27
2022-09-28T06:32:33.918Z,11.29
2022-09-28T06:35:00.344Z,11.33
2022-09-28T06:37:27.634Z,11.48
2022-09-28T06:39:54.925Z,11.46
2022-09-28T06:42:21.980Z,11.53
2022-09-28T06:45:07.876Z,11.55
2022-09-28T06:47:43.552Z,11.54
2022-09-28T06:50:34.386Z,11.75
2022-09-28T06:53:13.988Z,11.73
2022-09-28T06:55:53.426Z,11.84
2022-09-28T06:58:20.904Z,11.92
2022-09-28T07:00:50.069Z,12.24
2022-09-28T07:03:19.839Z,12.44
2022-09-28T07:06:04.823Z,12.72
2022-09-28T07:09:05.653Z,12.91
2022-09-28T07:11:58.543Z,13.15
2022-09-28T07:14:46.914Z,12.96
2022-09-28T07:17:15.069Z,13.25
2022-09-28T07:19:42.673Z,13.21
2022-09-28T07:22:18.405Z,13.20
2022-09-28T07:24:46.853Z,12.97
2022-09-28T07:27:32.138Z,12.83
2022-09-28T07:30:35.376Z,12.92
2022-09-28T07:33:15.811Z,13.21
2022-09-28T07:36:08.636Z,13.29
2022-09-28T07:38:35.126Z,13.45
2022-09-28T07:41:14.802Z,13.64
2022-09-28T07:43:45.213Z,13.51
2022-09-28T07:46:14.790Z,13.67
2022-09-28T07:48:49.466Z,13.46
2022-09-28T07:51:24.059Z,13.35
2022-09-28T07:54:15.154Z,13.13
2022-09-28T07:57:06.888Z,13.21
2022-09-28T07:59:40.591Z,13.14
2022-09-28T08:02:25.725Z,12.95
2022-09-28T08:04:52.900Z,13.15
2022-09-28T08:07:23.666Z,13.20
2022-09-28T08:09:56.906Z,13.06
2022-09-28T08:12:26.231Z,12.92
2022-09-28T08:15:14.397Z,13.57
2022-09-28T08:17:49.262Z,13.21
2022-09-28T08:20:36.773Z,12.99
2022-09-28T08:23:08.650Z,12.79
2022-09-28T08:25:39.534Z,12.92
2022-09-28T08:28:07.295Z,12.73
2022-09-28T08:30:38.423Z,12.91
2022-09-28T08:33:20.263Z,12.79
2022-09-28T08:35:47.658Z,12.91
2022-09-28T08:38:27.750Z,12.85
2022-09-28T08:41:18.964Z,12.86
2022-09-28T08:44:12.009Z,12.86
2022-09-28T08:47:06.271Z,12.68
2022-09-28T08:50:05.217Z,12.81
2022-09-28T08:52:48.016Z,12.83
2022-09-28T08:55:32.280Z,12.98
2022-09-28T08:58:13.905Z,13.22
2022-09-28T09:00:52.913Z,13.25
2022-09-28T09:03:23.755Z,13.52
2022-09-28T09:06:35.260Z,13.71
2022-09-28T09:09:34.035Z,13.77
2022-09-28T09:12:10.195Z,14.02
2022-09-28T09:15:09.512Z,13.89
2022-09-28T09:17:47.706Z,13.91
2022-09-28T09:20:55.431Z,14.03
2022-09-28T09:23:31.822Z,14.24
2022-09-28T09:26:08.727Z,14.38
2022-09-28T09:29:21.691Z,14.25
2022-09-28T09:32:08.002Z,13.95
2022-09-28T09:35:18.785Z,13.95
2022-09-28T09:38:27.798Z,13.89
2022-09-28T09:41:38.344Z,13.90
2022-09-28T09:45:01.682Z,14.00
2022-09-28T09:48:10.654Z,13.97
2022-09-28T09:50:40.628Z,13.81
2022-09-28T09:53:42.192Z,13.87
2022-09-28T09:56:16.055Z,13.89
2022-09-28T09:59:11.564Z,13.85
2022-09-28T10:01:56.579Z,13.80
2022-09-28T10:04:39.468Z,13.94
2022-09-28T10:07:22.116Z,14.01
2022-09-28T10:09:51.800Z,13.80
2022-09-28T10:12:26.430Z,13.84
2022-09-28T10:14:55.225Z,13.60
2022-09-28T10:17:27.635Z,13.73
2022-09-28T10:20:20.252Z,13.74
2022-09-28T10:23:02.112Z,13.80
2022-09-28T10:25:33.879Z,13.67
2022-09-28T10:28:02.904Z,13.44
2022-09-28T10:30:36.993Z,13.66
2022-09-28T10:33:03.662Z,13.76
2022-09-28T10:35:42.186Z,13.82
2022-09-28T10:38:17.229Z,13.43
2022-09-28T10:40:55.729Z,13.54
2022-09-28T10:43:35.003Z,13.10
2022-09-28T10:46:14.982Z,13.05
2022-09-28T10:48:54.784Z,13.08
2022-09-28T10:51:42.395Z,12.93
2022-09-28T10:54:16.767Z,12.84
2022-09-28T10:56:50.187Z,12.61
2022-09-28T10:59:36.904Z,12.73
2022-09-28T11:02:35.453Z,12.48
2022-09-28T11:05:25.751Z,12.67
2022-09-28T11:07:55.868Z,12.67
2022-09-28T11:10:30.986Z,12.60
2022-09-28T11:13:03.190Z,12.43
2022-09-28T11:15:33.070Z,12.63
2022-09-28T11:18:24.018Z,12.51
2022-09-28T11:20:50.465Z,12.61
2022-09-28T11:23:30.393Z,12.34
2022-09-28T11:26:06.426Z,12.50
2022-09-28T11:28:35.324Z,12.42
2022-09-28T11:31:08.118Z,12.43
2022-09-28T11:34:04.138Z,12.52
2022-09-28T11:36:46.183Z,12.52
2022-09-28T11:39:27.063Z,12.41
2022-09-28T11:42:07.242Z,12.55
2022-09-28T11:44:48.811Z,12.57
2022-09-28T11:47:45.304Z,12.62
2022-09-28T11:50:22.970Z,12.61
2022-09-28T11:52:59.363Z,12.56
2022-09-28T11:55:42.205Z,12.43
2022-09-28T11:58:24.517Z,12.55
2022-09-28T12:00:59.212Z,12.52
2022-09-28T12:03:49.017Z,12.37
2022-09-28T12:06:20.261Z,12.43
2022-09-28T12:08:56.281Z,12.35
2022-09-28T12:11:45.403Z,12.33
2022-09-28T12:14:35.603Z,12.29
2022-09-28T12:17:39.456Z,12.21
2022-09-28T12:20:26.151Z,12.38
2022-09-28T12:23:11.129Z,12.22
2022-09-28T12:25:46.691Z,12.13
2022-09-28T12:28:24.160Z,12.30
2022-09-28T12:30:52.776Z,12.46
2022-09-28T12:33:19.275Z,12.63
2022-09-28T12:36:04.823Z,12.54
2022-09-28T12:38:40.279Z,12.54
2022-09-28T12:41:19.814Z,12.67
2022-09-28T12:44:08.405Z,12.58
2022-09-28T12:46:59.276Z,12.76
2022-09-28T12:50:37.584Z,12.79
2022-09-28T12:53:15.144Z,12.98
2022-09-28T12:55:58.241Z,13.22
2022-09-28T12:59:01.050Z,13.28
2022-09-28T13:02:18.925Z,13.34
2022-09-28T13:04:51.319Z,13.42
2022-09-28T13:07:49.877Z,13.51
2022-09-28T13:10:33.147Z,13.55
2022-09-28T13:13:15.888Z,13.63
2022-09-28T13:15:48.238Z,13.47
2022-09-28T13:18:20.696Z,13.41
2022-09-28T13:21:08.930Z,13.57
2022-09-28T13:23:40.255Z,13.59
2022-09-28T13:26:22.674Z,13.57
2022-09-28T13:28:54.627Z,13.74
2022-09-28T13:31:30.877Z,13.71
2022-09-28T13:34:01.664Z,13.73
2022-09-28T13:36:28.039Z,13.81
2022-09-28T13:38:56.778Z,13.67
2022-09-28T13:41:29.118Z,13.78
2022-09-28T13:44:17.093Z,14.04
2022-09-28T13:47:08.489Z,13.98
2022-09-28T13:49:56.595Z,14.04
2022-09-28T13:52:52.092Z,14.02
2022-09-28T13:55:37.119Z,13.85
2022-09-28T13:58:26.023Z,13.98
2022-09-28T14:01:14.963Z,13.76
2022-09-28T14:03:52.604Z,13.84
2022-09-28T14:06:27.088Z,13.97
2022-09-28T14:09:15.796Z,14.21
2022-09-28T14:11:58.936Z,14.20
2022-09-28T14:14:49.777Z,14.19
2022-09-28T14:17:19.128Z,14.42
2022-09-28T14:19:51.846Z,14.22
2022-09-28T14:22:29.175Z,14.33
2022-09-28T14:25:13.567Z,14.38
2022-09-28T14:27:57.473Z,14.57
2022-09-28T14:30:27.382Z,14.28
2022-09-28T14:32:57.867Z,14.31
2022-09-28T14:35:58.773Z,14.64
2022-09-28T14:38:55.680Z,14.72
2022-09-28T14:41:34.542Z,14.95
2022-09-28T14:44:09.083Z,14.93
2022-09-28T14:46:46.062Z,14.58
2022-09-28T14:49:32.552Z,14.38
2022-09-28T14:52:02.900Z,14.25
2022-09-28T14:54:45.216Z,14.26
2022-09-28T14:57:21.120Z,14.32
2022-09-28T14:59:48.086Z,14.18
2022-09-28T15:02:24.980Z,14.08
2022-09-28T15:05:00.913Z,14.07
2022-09-28T15:07:46.067Z,14.02
2022-09-28T15:10:33.059Z,13.86
2022-09-28T15:13:23.873Z,13.64
2022-09-28T15:15:54.486Z,13.53
2022-09-28T15:18:43.861Z,13.56
2022-09-28T15:21:12.159Z,13.56
2022-09-28T15:23:41.689Z,13.58
2022-09-28T15:26:21.732Z,13.57
2022-09-28T15:28:48.164Z,13.24
2022-09-28T15:31:20.416Z,13.32
2022-09-28T15:34:06.112Z,13.31
2022-09-28T15:36:46.322Z,13.22
2022-09-28T15:39:29.627Z,13.15
2022-09-28T15:41:56.427Z,13.01
2022-09-28T15:44:32.920Z,13.01
2022-09-28T15:47:09.672Z,12.99
2022-09-28T15:49:46.434Z,12.84
2022-09-28T15:52:35.269Z,12.82
2022-09-28T15:55:06.097Z,12.83
2022-09-28T15:57:39.160Z,12.52
2022-09-28T16:00:20.835Z,12.63
2022-09-28T16:03:08.899Z,12.60
2022-09-28T16:05:57.272Z,12.34
2022-09-28T16:08:36.865Z,12.53
2022-09-28T16:11:31.324Z,12.55
2022-09-28T16:14:08.768Z,12.47
2022-09-28T16:16:46.958Z,12.47
2022-09-28T16:19:29.584Z,12.47
2022-09-28T16:21:59.870Z,12.40
2022-09-28T16:24:30.322Z,12.41
2022-09-28T16:27:09.230Z,12.32
2022-09-28T16:29:39.673Z,12.35
2022-09-28T16:32:24.889Z,12.22
2022-09-28T16:35:11.182Z,12.22
2022-09-28T16:37:42.589Z,12.24
2022-09-28T16:40:10.367Z,12.21
2022-09-28T16:42:38.772Z,12.19
2022-09-28T16:45:06.187Z,12.13
2022-09-28T16:47:36.258Z,12.15
2022-09-28T16:50:10.591Z,12.10
2022-09-28T16:52:59.820Z,12.09
2022-09-28T16:55:40.225Z,12.01
2022-09-28T16:58:08.094Z,11.99
2022-09-28T17:00:34.496Z,11.96
2022-09-28T17:03:00.929Z,11.91
2022-09-28T17:05:27.333Z,11.94
2022-09-28T17:08:02.510Z,11.90
2022-09-28T17:13:38.909Z,11.85
2022-09-28T17:16:10.946Z,11.81
2022-09-28T17:18:39.108Z,11.83
2022-09-28T17:21:09.448Z,11.81
2022-09-28T17:23:35.860Z,11.78
2022-09-28T17:26:03.948Z,11.76
2022-09-28T17:28:33.474Z,11.77
2022-09-28T17:30:59.993Z,11.65
2022-09-28T17:33:26.459Z,11.64
2022-09-28T17:36:00.099Z,11.66
2022-09-28T17:38:27.140Z,11.71
2022-09-28T17:40:53.609Z,11.78
2022-09-28T17:43:22.111Z,11.82
2022-09-28T17:45:49.033Z,11.78
2022-09-28T17:48:18.098Z,11.73
2022-09-28T17:50:46.652Z,11.72
2022-09-28T17:53:13.829Z,11.65
2022-09-28T17:55:40.843Z,11.58
2022-09-28T17:58:22.302Z,11.61
2022-09-28T18:00:51.163Z,11.55
2022-09-28T18:03:23.753Z,11.60
2022-09-28T18:05:57.953Z,11.52
2022-09-28T18:08:24.391Z,11.55
2022-09-28T18:10:50.917Z,11.53
2022-09-28T18:13:17.382Z,11.54
2022-09-28T18:15:43.958Z,11.50
2022-09-28T18:18:12.518Z,11.49
2022-09-28T18:20:39.480Z,11.54
2022-09-28T18:23:05.951Z,11.53
2022-09-28T18:25:32.483Z,11.50
2022-09-28T18:28:00.078Z,11.48
2022-09-28T18:30:28.011Z,11.53
2022-09-28T18:32:54.505Z,11.48
2022-09-28T18:35:23.225Z,11.41
2022-09-28T18:37:50.355Z,11.39
2022-09-28T18:40:17.286Z,11.38
2022-09-28T18:42:43.768Z,11.35
2022-09-28T18:45:11.203Z,11.40
2022-09-28T18:47:38.983Z,11.40
2022-09-28T18:50:06.299Z,11.48
2022-09-28T18:52:36.279Z,11.56
2022-09-28T18:55:02.979Z,11.54
2022-09-28T18:57:29.409Z,11.52
2022-09-28T18:59:55.848Z,11.50
2022-09-28T19:02:22.412Z,11.39
2022-09-28T19:04:48.841Z,11.44
2022-09-28T19:07:15.285Z,11.49
2022-09-28T19:09:43.938Z,11.52
2022-09-28T19:12:11.762Z,11.55
2022-09-28T19:14:38.220Z,11.56
2022-09-28T19:17:04.913Z,11.53
2022-09-28T19:19:31.675Z,11.53
2022-09-28T19:21:58.216Z,11.42
2022-09-28T19:24:25.342Z,11.38
2022-09-28T19:26:53.539Z,11.29
2022-09-28T19:29:20.550Z,11.25
2022-09-28T19:31:47.262Z,11.24
2022-09-28T19:34:14.413Z,11.27
2022-09-28T19:36:41.642Z,11.25
2022-09-28T19:39:08.026Z,11.27
2022-09-28T19:41:43.485Z,11.31
2022-09-28T19:44:24.345Z,11.34
2022-09-28T19:46:53.470Z,11.34
2022-09-28T19:49:22.085Z,11.34
2022-09-28T19:54:37.401Z,11.25
2022-09-28T19:57:07.761Z,11.13
2022-09-28T19:59:35.586Z,11.18
2022-09-28T20:02:03.104Z,11.10
2022-09-28T20:04:29.958Z,11.11
2022-09-28T20:06:56.352Z,11.18
2022-09-28T20:09:22.780Z,11.14
2022-09-28T20:11:51.250Z,11.11
2022-09-28T20:14:18.594Z,11.18
2022-09-28T20:16:46.170Z,11.24
2022-09-28T20:19:12.799Z,11.22
2022-09-28T20:21:39.222Z,11.20
2022-09-28T20:24:05.747Z,11.14
2022-09-28T20:26:37.329Z,11.09
2022-09-28T20:29:07.718Z,11.12
2022-09-28T20:31:38.792Z,11.15
2022-09-28T20:34:05.669Z,11.01
2022-09-28T20:36:32.229Z,10.97
2022-09-28T20:39:01.798Z,10.88
2022-09-28T20:41:34.682Z,10.84
2022-09-28T20:44:05.357Z,10.91
2022-09-28T20:46:32.892Z,10.93
2022-09-28T20:48:59.623Z,10.81
2022-09-28T20:51:26.372Z,10.78
2022-09-28T20:53:58.095Z,10.69
2022-09-28T20:56:28.938Z,10.75
2022-09-28T20:58:55.415Z,10.79
2022-09-28T21:01:24.105Z,10.81
2022-09-28T21:03:55.754Z,10.77
2022-09-28T21:06:25.319Z,10.71
2022-09-28T21:08:52.036Z,10.73
2022-09-28T21:11:20.695Z,10.70
2022-09-28T21:13:47.743Z,10.64
2022-09-28T21:16:16.017Z,10.65
2022-09-28T21:18:42.584Z,10.73
2022-09-28T21:21:14.047Z,10.77
2022-09-28T21:23:40.741Z,10.77
2022-09-28T21:26:10.000Z,10.70
2022-09-28T21:28:37.341Z,10.65
2022-09-28T21:31:09.011Z,10.54
2022-09-28T21:33:35.407Z,10.60
2022-09-28T21:36:04.010Z,10.65
2022-09-28T21:38:30.580Z,10.77
2022-09-28T21:40:58.510Z,10.68
2022-09-28T21:43:27.348Z,10.73
2022-09-28T21:45:54.865Z,10.67
2022-09-28T21:48:22.873Z,10.67
2022-09-28T21:51:00.288Z,10.72
2022-09-28T21:53:29.976Z,10.75
2022-09-28T21:55:57.406Z,10.68
2022-09-28T21:58:26.510Z,10.75
2022-09-28T22:01:15.382Z,10.70
2022-09-28T22:03:43.992Z,10.67
2022-09-28T22:06:11.192Z,10.72
2022-09-28T22:08:38.159Z,10.71
2022-09-28T22:11:13.213Z,10.66
2022-09-28T22:13:59.660Z,10.71
2022-09-28T22:16:29.570Z,10.75
2022-09-28T22:18:56.500Z,10.71
2022-09-28T22:21:32.590Z,10.77
2022-09-28T22:24:01.066Z,10.76
2022-09-28T22:26:29.498Z,10.69
2022-09-28T22:29:07.597Z,10.66
2022-09-28T22:31:37.424Z,10.65
2022-09-28T22:34:05.244Z,10.53
2022-09-28T22:36:31.829Z,10.54
2022-09-28T22:38:59.430Z,10.61
2022-09-28T22:41:26.164Z,10.49
2022-09-28T22:43:53.706Z,10.57
2022-09-28T22:46:22.913Z,10.49
2022-09-28T22:48:52.623Z,10.55
2022-09-28T22:51:19.742Z,10.55
2022-09-28T22:53:46.118Z,10.52
2022-09-28T22:56:18.508Z,10.54
2022-09-28T22:58:45.717Z,10.54
2022-09-28T23:01:32.385Z,10.46
2022-09-28T23:03:59.388Z,10.45
2022-09-28T23:06:27.720Z,10.44
2022-09-28T23:08:54.110Z,10.34
2022-09-28T23:11:20.607Z,10.33
2022-09-28T23:13:51.257Z,10.35
2022-09-28T23:16:18.561Z,10.44
2022-09-28T23:18:45.053Z,10.53
2022-09-28T23:21:16.703Z,10.54
2022-09-28T23:23:50.519Z,10.42
2022-09-28T23:26:19.956Z,10.40
2022-09-28T23:28:46.427Z,10.36
2022-09-28T23:31:16.713Z,10.46
2022-09-28T23:33:43.293Z,10.45
2022-09-28T23:36:09.940Z,10.46
2022-09-28T23:38:36.395Z,10.49
2022-09-28T23:41:02.841Z,10.48
2022-09-28T23:43:29.255Z,10.36
2022-09-28T23:45:55.633Z,10.33
2022-09-28T23:48:22.075Z,10.29
2022-09-28T23:50:48.709Z,10.44
2022-09-28T23:53:15.438Z,10.45
2022-09-28T23:55:42.828Z,10.40
2022-09-28T23:58:10.405Z,10.48
